Weather reports worldwide

Advertisment
Capo Spartivento, Italy (16469): temperature & dewpoint: 17.04.2018 01:00:00 - 23.04.2018 01:00:00 (CEST)Capo Spartivento, Italy (16469): wind speed: 17.04.2018 01:00:00 - 23.04.2018 01:00:00 (CEST)Capo Spartivento, Italy (16469): wind direction: 17.04.2018 01:00:00 - 23.04.2018 01:00:00 (CEST)Capo Spartivento, Italy (16469): reduced air pressure: 17.04.2018 01:00:00 - 23.04.2018 01:00:00 (CEST)Capo Spartivento, Italy (16469): precipitation: 17.04.2018 01:00:00 - 23.04.2018 01:00:00 (CEST)
Date & Time tt [°C] td [°C] ff [km/h] ff [kn] dd ppp [hPa] rr [mm]
23.04.2018 01:00:00 - - - - - - -
23.04.2018 00:00:00 19,4 19,3 4 2 N 1017,7 -
22.04.2018 23:00:00 19,5 19,4 2 1 W 1017,8 -
22.04.2018 22:00:00 19,1 19,0 5 3 SW 1018,0 -
22.04.2018 21:00:00 19,1 19,0 8 4 NW 1017,4 -
22.04.2018 20:00:00 19,5 19,4 15 8 SSW 1017,1 0,0
22.04.2018 19:00:00 20,1 20,0 8 4 ESE 1017,1 -
22.04.2018 18:00:00 21,1 20,2 24 13 S 1017,0 -
22.04.2018 17:00:00 21,9 19,8 21 11 S 1017,4 -
22.04.2018 16:00:00 22,5 19,6 5 3 ESE 1017,7 -
22.04.2018 15:00:00 22,1 19,6 5 3 WSW 1018,4 -
22.04.2018 14:00:00 21,2 19,3 13 7 NNE 1018,7 0,0
22.04.2018 13:00:00 21,3 19,2 15 8 NE 1018,8 -
22.04.2018 12:00:00 21,4 19,3 16 9 NNE 1019,0 -
22.04.2018 11:00:00 20,1 18,9 21 11 NNE 1018,9 -
22.04.2018 10:00:00 19,7 19,0 26 14 NNE 1018,7 -
22.04.2018 09:00:00 19,5 19,1 21 11 N 1018,5 -
22.04.2018 08:00:00 18,6 18,5 22 12 NNW 1018,4 0,0
22.04.2018 07:00:00 17,8 17,7 22 12 NNW 1018,1 -
22.04.2018 06:00:00 18,0 17,9 13 7 NNW 1018,2 -
22.04.2018 05:00:00 18,2 18,0 9 5 S 1018,0 -
22.04.2018 04:00:00 18,4 18,0 11 6 NNW 1018,1 -
22.04.2018 03:00:00 18,9 17,0 13 7 NNW 1018,1 -
22.04.2018 02:00:00 20,0 14,5 5 3 NW 1018,4 0,0
22.04.2018 01:00:00 20,6 13,0 2 1 SSW 1018,8 -
22.04.2018 00:00:00 20,5 15,2 4 2 SSE 1018,9 -
21.04.2018 23:00:00 21,0 11,8 5 3 SSW 1019,0 -
21.04.2018 22:00:00 21,1 12,5 8 4 SW 1018,6 -
21.04.2018 21:00:00 21,1 12,2 8 4 NE 1018,1 -
21.04.2018 20:00:00 20,8 14,1 5 3 NNE 1018,0 0,0
21.04.2018 19:00:00 21,7 17,0 9 5 SE 1018,0 -
21.04.2018 18:00:00 22,7 17,3 8 4 S 1017,9 -
21.04.2018 17:00:00 23,2 16,9 8 4 WNW 1017,9 -
21.04.2018 16:00:00 22,4 15,4 9 5 NE 1018,3 -
21.04.2018 15:00:00 22,9 16,1 13 7 NNE 1018,3 -
21.04.2018 14:00:00 22,4 15,9 16 9 N 1018,6 0,0
21.04.2018 13:00:00 22,4 16,1 16 9 NNE 1018,7 -
21.04.2018 12:00:00 22,8 15,1 16 9 NNE 1018,8 -
21.04.2018 11:00:00 22,4 18,1 15 8 NNE 1018,4 -
21.04.2018 10:00:00 24,1 11,7 8 4 SSE 1017,4 -
21.04.2018 09:00:00 24,0 12,3 4 2 SE 1017,1 -
21.04.2018 08:00:00 23,3 11,0 4 2 SSW 1016,8 0,0
21.04.2018 07:00:00 22,3 10,7 4 2 W 1016,6 -
21.04.2018 06:00:00 22,7 10,8 5 3 W 1016,2 -
21.04.2018 05:00:00 23,0 11,4 8 4 WSW 1016,2 -
21.04.2018 04:00:00 21,9 11,6 4 2 NW 1016,5 -
21.04.2018 03:00:00 22,7 11,7 8 4 W 1016,6 -
21.04.2018 02:00:00 23,2 12,8 5 3 W 1017,0 0,0
21.04.2018 01:00:00 21,8 12,8 8 4 SSW 1017,3 -
21.04.2018 00:00:00 21,7 15,0 5 3 S 1017,3 -
20.04.2018 23:00:00 22,5 13,5 4 2 W 1017,1 -
20.04.2018 22:00:00 22,2 12,7 11 6 NNW 1016,9 -
20.04.2018 21:00:00 22,1 13,1 15 8 NW 1016,5 -
20.04.2018 20:00:00 21,6 15,1 11 6 NNW 1016,1 0,0
20.04.2018 19:00:00 22,3 16,9 11 6 NNW 1016,0 -
20.04.2018 18:00:00 25,4 16,2 9 5 N 1015,8 -
20.04.2018 17:00:00 26,9 11,8 8 4 E 1015,5 -
20.04.2018 16:00:00 25,0 14,4 13 7 WSW 1016,0 -
20.04.2018 15:00:00 24,4 14,4 21 11 S 1016,8 -
20.04.2018 14:00:00 24,2 14,8 22 12 S 1017,4 0,0
20.04.2018 13:00:00 23,9 14,8 22 12 SE 1017,8 -
20.04.2018 12:00:00 23,0 17,2 18 10 S 1018,3 -
20.04.2018 11:00:00 22,0 17,5 15 8 S 1018,4 -
20.04.2018 10:00:00 22,1 16,3 11 6 S 1018,4 -
20.04.2018 09:00:00 22,0 15,3 9 5 S 1018,6 -
20.04.2018 08:00:00 21,8 13,9 4 2 S 1018,6 0,0
20.04.2018 07:00:00 21,0 13,4 13 7 NNW 1018,6 -
20.04.2018 06:00:00 20,8 14,8 11 6 NNW 1018,8 -
20.04.2018 05:00:00 20,7 15,8 13 7 NW 1019,1 -
20.04.2018 04:00:00 20,6 15,9 21 11 NNW 1019,1 -
20.04.2018 03:00:00 19,8 16,4 13 7 NNW 1019,7 -
20.04.2018 02:00:00 20,5 17,1 4 2 NNW 1020,0 0,0
20.04.2018 01:00:00 20,6 17,2 2 1 N 1020,3 -
20.04.2018 00:00:00 20,3 17,2 2 1 WNW 1020,6 -
19.04.2018 23:00:00 19,8 17,1 4 2 SSW 1021,0 -
19.04.2018 22:00:00 19,7 17,2 5 3 SW 1021,3 -
19.04.2018 21:00:00 20,1 17,4 2 1 NNW 1021,3 -
19.04.2018 20:00:00 19,8 17,1 13 7 NW 1020,8 0,0
19.04.2018 19:00:00 20,7 17,1 16 9 NNW 1020,5 -
19.04.2018 18:00:00 21,4 16,7 18 10 N 1020,4 -
19.04.2018 17:00:00 21,7 16,4 24 13 NNE 1020,8 -
19.04.2018 16:00:00 21,8 16,2 26 14 N 1021,1 -
19.04.2018 15:00:00 21,7 16,6 28 15 N 1021,5 -
19.04.2018 14:00:00 22,0 17,1 26 14 NNE 1021,7 0,0
19.04.2018 13:00:00 21,9 16,5 26 14 N 1021,6 -
19.04.2018 12:00:00 21,5 18,0 24 13 N 1022,1 -
19.04.2018 11:00:00 21,1 18,8 18 10 N 1022,1 -
19.04.2018 10:00:00 20,1 19,2 21 11 NNE 1022,2 -
19.04.2018 09:00:00 20,3 18,2 16 9 NNE 1021,6 -
19.04.2018 08:00:00 19,7 17,8 4 2 E 1021,8 0,0
19.04.2018 07:00:00 19,4 15,8 15 8 NW 1021,4 -
19.04.2018 06:00:00 19,1 16,6 22 12 NNW 1020,8 -
19.04.2018 05:00:00 19,3 16,6 24 13 NW 1021,0 -
19.04.2018 04:00:00 19,8 16,8 22 12 NNW 1021,7 -
19.04.2018 03:00:00 19,9 16,7 28 15 NW 1021,5 -
19.04.2018 02:00:00 18,6 18,2 8 4 NNW 1022,2 0,0
19.04.2018 01:00:00 19,0 18,1 0 0 N 1022,4 -
19.04.2018 00:00:00 19,3 18,3 2 1 E 1022,2 -
18.04.2018 23:00:00 18,8 18,4 4 2 SW 1021,9 -
18.04.2018 22:00:00 18,7 18,6 5 3 S 1021,8 -
18.04.2018 21:00:00 18,8 18,6 9 5 E 1021,2 -
18.04.2018 20:00:00 19,1 16,8 8 4 N 1020,9 0,0
18.04.2018 19:00:00 19,2 16,7 18 10 NNW 1020,4 -
18.04.2018 18:00:00 19,4 17,3 16 9 NNW 1021,2 -
18.04.2018 17:00:00 19,7 18,3 15 8 N 1021,5 -
18.04.2018 16:00:00 19,8 18,2 18 10 NNE 1021,4 -
18.04.2018 15:00:00 20,3 17,8 26 14 NNE 1021,2 -
18.04.2018 14:00:00 20,2 18,4 22 12 NNE 1021,4 0,0
18.04.2018 13:00:00 20,0 18,2 22 12 NNE 1021,9 -
18.04.2018 12:00:00 20,1 17,4 29 16 NNE 1021,4 -
18.04.2018 11:00:00 20,4 17,9 22 12 N 1021,2 -
18.04.2018 10:00:00 20,3 17,6 21 11 NW 1020,7 -
18.04.2018 09:00:00 19,2 17,6 28 15 NNW 1020,6 -
18.04.2018 08:00:00 19,0 17,4 26 14 NNW 1020,3 0,0
18.04.2018 07:00:00 18,7 16,8 22 12 NNW 1019,7 -
18.04.2018 06:00:00 18,8 16,3 26 14 NNW 1019,2 -
18.04.2018 05:00:00 19,1 15,9 24 13 NNW 1019,4 -
18.04.2018 04:00:00 19,2 14,2 22 12 NNW 1019,2 -
18.04.2018 03:00:00 18,3 14,9 13 7 NNW 1019,3 -
18.04.2018 02:00:00 18,9 15,3 4 2 NNW 1019,4 0,0
18.04.2018 01:00:00 19,1 15,7 4 2 WNW 1019,4 -
18.04.2018 00:00:00 20,1 16,9 4 2 W 1019,0 -
17.04.2018 23:00:00 19,1 16,1 4 2 W 1019,1 -
17.04.2018 22:00:00 19,2 16,4 4 2 WNW 1019,0 -
17.04.2018 21:00:00 19,2 16,4 5 3 NNW 1018,3 -
17.04.2018 20:00:00 20,3 16,7 4 2 NNE 1017,7 0,0
17.04.2018 19:00:00 21,3 17,6 2 1 NW 1017,6 -
17.04.2018 18:00:00 21,8 18,5 4 2 SSE 1017,2 -
17.04.2018 17:00:00 21,9 18,0 4 2 E 1017,3 -
17.04.2018 16:00:00 22,0 17,7 4 2 ESE 1017,5 -
17.04.2018 15:00:00 22,2 17,5 5 3 ESE 1017,8 -
17.04.2018 14:00:00 22,3 18,0 4 2 NNE 1018,0 0,0
17.04.2018 13:00:00 21,0 17,7 11 6 S 1018,3 -
17.04.2018 12:00:00 20,9 17,4 11 6 SSE 1018,2 -
17.04.2018 11:00:00 20,2 16,6 11 6 S 1017,9 -
17.04.2018 10:00:00 20,5 16,9 5 3 SW 1017,6 -
17.04.2018 09:00:00 19,8 16,4 8 4 S 1017,0 -
17.04.2018 08:00:00 19,3 16,3 0 0 N 1016,3 0,0
17.04.2018 07:00:00 18,6 16,0 5 3 W 1015,7 -
17.04.2018 06:00:00 18,1 15,7 5 3 NW 1015,3 -
17.04.2018 05:00:00 18,1 15,7 5 3 NW 1015,0 -
17.04.2018 04:00:00 18,5 16,2 2 1 NNE 1014,9 -
17.04.2018 03:00:00 18,5 16,4 5 3 N 1014,6 -
17.04.2018 02:00:00 18,4 16,7 5 3 NW 1015,0 0,0
17.04.2018 01:00:00 18,5 16,4 5 3 NW 1015,4 -

tt = temperature
td = dewpoint
ff = wind speed
dd = wind direction
ppp = reduced air pressure
rr = precipitation

Next stations